sensor_id;sensor_type;location;lat;lon;timestamp;P1;durP1;ratioP1;P2;durP2;ratioP2
12888;SDS011;56848;49.896;11.424;2023-03-07T05:01:24;30.67;;;12.75;;
12888;SDS011;56848;49.896;11.424;2023-03-07T05:03:49;27.90;;;12.20;;
12888;SDS011;56848;49.896;11.424;2023-03-07T05:06:15;30.10;;;10.67;;
12888;SDS011;56848;49.896;11.424;2023-03-07T05:08:40;29.37;;;11.33;;
12888;SDS011;56848;49.896;11.424;2023-03-07T05:11:06;31.53;;;12.30;;
12888;SDS011;56848;49.896;11.424;2023-03-07T05:13:32;32.40;;;12.03;;
12888;SDS011;56848;49.896;11.424;2023-03-07T05:15:58;18.80;;;7.77;;
12888;SDS011;56848;49.896;11.424;2023-03-07T05:18:24;16.02;;;7.57;;
12888;SDS011;56848;49.896;11.424;2023-03-07T05:20:50;25.80;;;9.40;;
12888;SDS011;56848;49.896;11.424;2023-03-07T05:23:16;23.97;;;10.70;;
12888;SDS011;56848;49.896;11.424;2023-03-07T05:25:43;17.80;;;6.50;;
12888;SDS011;56848;49.896;11.424;2023-03-07T05:28:08;12.93;;;5.53;;
12888;SDS011;56848;49.896;11.424;2023-03-07T05:30:34;27.00;;;12.27;;
12888;SDS011;56848;49.896;11.424;2023-03-07T05:33:00;29.87;;;11.90;;
12888;SDS011;56848;49.896;11.424;2023-03-07T05:35:25;29.17;;;11.30;;
12888;SDS011;56848;49.896;11.424;2023-03-07T05:37:51;32.30;;;14.00;;
12888;SDS011;56848;49.896;11.424;2023-03-07T05:40:17;35.70;;;13.77;;
12888;SDS011;56848;49.896;11.424;2023-03-07T05:42:43;30.15;;;10.68;;
12888;SDS011;56848;49.896;11.424;2023-03-07T05:45:09;27.03;;;12.40;;
12888;SDS011;56848;49.896;11.424;2023-03-07T05:47:35;30.42;;;13.30;;
12888;SDS011;56848;49.896;11.424;2023-03-07T05:50:01;20.77;;;9.18;;
12888;SDS011;56848;49.896;11.424;2023-03-07T05:52:27;33.17;;;13.07;;
12888;SDS011;56848;49.896;11.424;2023-03-07T05:54:53;16.08;;;7.32;;
12888;SDS011;56848;49.896;11.424;2023-03-07T05:57:19;14.13;;;6.72;;
12888;SDS011;56848;49.896;11.424;2023-03-07T05:59:46;15.38;;;6.45;;
12888;SDS011;56848;49.896;11.424;2023-03-07T06:02:11;29.43;;;13.03;;
12888;SDS011;56848;49.896;11.424;2023-03-07T06:04:37;30.57;;;13.10;;
12888;SDS011;56848;49.896;11.424;2023-03-07T06:07:02;27.00;;;11.63;;
12888;SDS011;56848;49.896;11.424;2023-03-07T06:09:28;4.73;;;3.43;;
12888;SDS011;56848;49.896;11.424;2023-03-07T06:11:53;22.13;;;6.10;;
12888;SDS011;56848;49.896;11.424;2023-03-07T06:14:19;35.67;;;14.40;;
12888;SDS011;56848;49.896;11.424;2023-03-07T06:16:45;28.10;;;12.17;;
12888;SDS011;56848;49.896;11.424;2023-03-07T06:19:10;12.37;;;6.23;;
12888;SDS011;56848;49.896;11.424;2023-03-07T06:21:36;26.30;;;8.80;;
12888;SDS011;56848;49.896;11.424;2023-03-07T06:24:02;7.43;;;4.07;;
12888;SDS011;56848;49.896;11.424;2023-03-07T06:26:28;20.63;;;7.55;;
12888;SDS011;56848;49.896;11.424;2023-03-07T06:28:54;27.10;;;10.77;;
12888;SDS011;56848;49.896;11.424;2023-03-07T06:31:19;20.67;;;9.37;;
12888;SDS011;56848;49.896;11.424;2023-03-07T06:33:47;20.83;;;7.00;;
12888;SDS011;56848;49.896;11.424;2023-03-07T06:36:13;16.05;;;6.93;;
12888;SDS011;56848;49.896;11.424;2023-03-07T06:38:40;19.30;;;8.77;;
12888;SDS011;56848;49.896;11.424;2023-03-07T06:41:06;14.93;;;8.40;;
12888;SDS011;56848;49.896;11.424;2023-03-07T06:43:32;11.70;;;6.70;;
12888;SDS011;56848;49.896;11.424;2023-03-07T06:45:58;25.97;;;12.57;;
12888;SDS011;56848;49.896;11.424;2023-03-07T06:48:24;25.95;;;10.55;;
12888;SDS011;56848;49.896;11.424;2023-03-07T06:50:50;25.33;;;9.30;;
12888;SDS011;56848;49.896;11.424;2023-03-07T06:53:15;8.40;;;3.70;;
12888;SDS011;56848;49.896;11.424;2023-03-07T06:55:41;15.00;;;6.70;;
12888;SDS011;56848;49.896;11.424;2023-03-07T06:58:07;20.40;;;9.40;;
12888;SDS011;56848;49.896;11.424;2023-03-07T07:00:32;26.03;;;12.20;;
12888;SDS011;56848;49.896;11.424;2023-03-07T07:02:58;25.20;;;12.03;;
12888;SDS011;56848;49.896;11.424;2023-03-07T07:05:23;14.43;;;6.30;;
12888;SDS011;56848;49.896;11.424;2023-03-07T07:07:49;22.63;;;10.80;;
12888;SDS011;56848;49.896;11.424;2023-03-07T07:10:14;25.20;;;11.83;;
12888;SDS011;56848;49.896;11.424;2023-03-07T07:12:40;22.33;;;11.20;;
12888;SDS011;56848;49.896;11.424;2023-03-07T07:15:06;25.10;;;10.53;;
12888;SDS011;56848;49.896;11.424;2023-03-07T07:17:33;11.73;;;6.10;;
12888;SDS011;56848;49.896;11.424;2023-03-07T07:20:05;25.30;;;11.65;;
12888;SDS011;56848;49.896;11.424;2023-03-07T07:22:35;25.92;;;10.85;;
12888;SDS011;56848;49.896;11.424;2023-03-07T07:25:00;13.90;;;7.03;;
12888;SDS011;56848;49.896;11.424;2023-03-07T07:27:26;25.33;;;11.40;;
12888;SDS011;56848;49.896;11.424;2023-03-07T07:29:52;20.15;;;10.05;;
12888;SDS011;56848;49.896;11.424;2023-03-07T07:32:18;25.40;;;11.83;;
12888;SDS011;56848;49.896;11.424;2023-03-07T07:34:43;21.93;;;11.53;;
12888;SDS011;56848;49.896;11.424;2023-03-07T07:37:09;26.47;;;11.37;;
12888;SDS011;56848;49.896;11.424;2023-03-07T07:39:34;14.37;;;8.70;;
12888;SDS011;56848;49.896;11.424;2023-03-07T07:42:00;12.83;;;5.77;;
12888;SDS011;56848;49.896;11.424;2023-03-07T07:44:29;20.57;;;8.83;;
12888;SDS011;56848;49.896;11.424;2023-03-07T07:46:55;22.65;;;10.68;;
12888;SDS011;56848;49.896;11.424;2023-03-07T07:49:20;27.43;;;11.90;;
12888;SDS011;56848;49.896;11.424;2023-03-07T07:51:46;25.50;;;11.93;;
12888;SDS011;56848;49.896;11.424;2023-03-07T07:54:11;24.30;;;11.93;;
12888;SDS011;56848;49.896;11.424;2023-03-07T07:56:37;9.63;;;5.13;;
12888;SDS011;56848;49.896;11.424;2023-03-07T07:59:03;18.70;;;7.80;;
12888;SDS011;56848;49.896;11.424;2023-03-07T08:01:28;21.10;;;9.70;;
12888;SDS011;56848;49.896;11.424;2023-03-07T08:03:54;12.17;;;5.57;;
12888;SDS011;56848;49.896;11.424;2023-03-07T08:06:20;12.73;;;6.73;;
12888;SDS011;56848;49.896;11.424;2023-03-07T08:08:48;15.98;;;8.00;;
12888;SDS011;56848;49.896;11.424;2023-03-07T08:11:16;10.73;;;5.97;;
12888;SDS011;56848;49.896;11.424;2023-03-07T08:13:43;23.10;;;9.60;;
12888;SDS011;56848;49.896;11.424;2023-03-07T08:18:40;12.40;;;5.30;;
12888;SDS011;56848;49.896;11.424;2023-03-07T08:21:06;19.13;;;9.00;;
12888;SDS011;56848;49.896;11.424;2023-03-07T08:23:32;25.13;;;10.70;;
12888;SDS011;56848;49.896;11.424;2023-03-07T08:26:02;24.33;;;9.95;;
12888;SDS011;56848;49.896;11.424;2023-03-07T08:28:29;19.75;;;5.88;;
12888;SDS011;56848;49.896;11.424;2023-03-07T08:30:55;19.37;;;6.47;;
12888;SDS011;56848;49.896;11.424;2023-03-07T08:33:20;28.33;;;11.83;;
12888;SDS011;56848;49.896;11.424;2023-03-07T08:35:46;28.93;;;11.17;;
12888;SDS011;56848;49.896;11.424;2023-03-07T08:38:11;21.83;;;10.67;;
12888;SDS011;56848;49.896;11.424;2023-03-07T08:40:37;22.10;;;8.07;;
12888;SDS011;56848;49.896;11.424;2023-03-07T08:43:02;14.83;;;8.50;;
12888;SDS011;56848;49.896;11.424;2023-03-07T08:45:28;20.83;;;7.90;;
12888;SDS011;56848;49.896;11.424;2023-03-07T08:47:54;16.33;;;8.60;;
12888;SDS011;56848;49.896;11.424;2023-03-07T08:50:21;22.10;;;11.73;;
12888;SDS011;56848;49.896;11.424;2023-03-07T08:52:49;27.48;;;10.57;;
12888;SDS011;56848;49.896;11.424;2023-03-07T08:55:15;28.00;;;13.23;;
12888;SDS011;56848;49.896;11.424;2023-03-07T08:57:40;28.40;;;10.67;;
12888;SDS011;56848;49.896;11.424;2023-03-07T09:00:08;17.20;;;6.70;;
12888;SDS011;56848;49.896;11.424;2023-03-07T09:02:36;16.08;;;7.97;;
12888;SDS011;56848;49.896;11.424;2023-03-07T09:05:01;19.27;;;10.67;;
12888;SDS011;56848;49.896;11.424;2023-03-07T09:07:27;22.60;;;10.52;;
12888;SDS011;56848;49.896;11.424;2023-03-07T09:09:53;27.13;;;12.40;;
12888;SDS011;56848;49.896;11.424;2023-03-07T09:12:20;13.95;;;5.70;;
12888;SDS011;56848;49.896;11.424;2023-03-07T09:14:46;17.77;;;10.20;;
12888;SDS011;56848;49.896;11.424;2023-03-07T09:17:11;19.23;;;9.30;;
12888;SDS011;56848;49.896;11.424;2023-03-07T09:19:37;18.47;;;9.87;;
12888;SDS011;56848;49.896;11.424;2023-03-07T09:22:02;20.73;;;10.23;;
12888;SDS011;56848;49.896;11.424;2023-03-07T09:24:28;20.83;;;9.70;;
12888;SDS011;56848;49.896;11.424;2023-03-07T09:26:54;22.30;;;10.50;;
12888;SDS011;56848;49.896;11.424;2023-03-07T09:29:20;21.00;;;11.50;;
12888;SDS011;56848;49.896;11.424;2023-03-07T09:31:46;18.83;;;8.80;;
12888;SDS011;56848;49.896;11.424;2023-03-07T09:34:11;20.70;;;10.30;;
12888;SDS011;56848;49.896;11.424;2023-03-07T09:36:37;10.10;;;4.53;;
12888;SDS011;56848;49.896;11.424;2023-03-07T09:39:03;21.67;;;9.57;;
12888;SDS011;56848;49.896;11.424;2023-03-07T09:44:41;12.53;;;5.60;;
12888;SDS011;56848;49.896;11.424;2023-03-07T09:47:27;13.23;;;6.83;;
12888;SDS011;56848;49.896;11.424;2023-03-07T09:50:16;13.00;;;7.03;;
12888;SDS011;56848;49.896;11.424;2023-03-07T09:52:50;11.90;;;6.33;;
12888;SDS011;56848;49.896;11.424;2023-03-07T09:55:19;14.70;;;7.33;;
12888;SDS011;56848;49.896;11.424;2023-03-07T09:57:46;25.93;;;8.50;;
12888;SDS011;56848;49.896;11.424;2023-03-07T10:00:19;8.40;;;5.87;;
12888;SDS011;56848;49.896;11.424;2023-03-07T10:05:43;6.00;;;4.30;;
12888;SDS011;56848;49.896;11.424;2023-03-07T10:08:33;6.40;;;3.60;;
12888;SDS011;56848;49.896;11.424;2023-03-07T10:16:49;8.70;;;4.50;;
12888;SDS011;56848;49.896;11.424;2023-03-07T10:27:40;15.10;;;9.17;;
12888;SDS011;56848;49.896;11.424;2023-03-07T10:30:17;15.17;;;8.33;;
12888;SDS011;56848;49.896;11.424;2023-03-07T10:32:45;15.00;;;7.10;;
12888;SDS011;56848;49.896;11.424;2023-03-07T10:35:15;8.40;;;5.20;;
12888;SDS011;56848;49.896;11.424;2023-03-07T10:38:01;14.37;;;7.77;;
12888;SDS011;56848;49.896;11.424;2023-03-07T10:40:52;13.20;;;5.97;;
12888;SDS011;56848;49.896;11.424;2023-03-07T10:43:25;14.77;;;8.27;;
12888;SDS011;56848;49.896;11.424;2023-03-07T10:46:12;13.73;;;7.30;;
12888;SDS011;56848;49.896;11.424;2023-03-07T10:48:53;11.93;;;7.10;;
12888;SDS011;56848;49.896;11.424;2023-03-07T10:54:17;9.43;;;6.97;;
12888;SDS011;56848;49.896;11.424;2023-03-07T10:57:01;12.20;;;5.63;;
12888;SDS011;56848;49.896;11.424;2023-03-07T10:59:35;7.70;;;5.27;;
12888;SDS011;56848;49.896;11.424;2023-03-07T11:02:03;15.73;;;7.70;;
12888;SDS011;56848;49.896;11.424;2023-03-07T11:05:02;19.40;;;7.93;;
12888;SDS011;56848;49.896;11.424;2023-03-07T11:07:43;12.73;;;7.27;;
12888;SDS011;56848;49.896;11.424;2023-03-07T11:10:42;12.40;;;6.60;;
12888;SDS011;56848;49.896;11.424;2023-03-07T11:13:10;11.60;;;7.20;;
12888;SDS011;56848;49.896;11.424;2023-03-07T11:15:41;5.93;;;3.63;;
12888;SDS011;56848;49.896;11.424;2023-03-07T11:20:54;10.30;;;6.03;;
12888;SDS011;56848;49.896;11.424;2023-03-07T11:23:24;11.40;;;6.40;;
12888;SDS011;56848;49.896;11.424;2023-03-07T11:25:51;6.13;;;3.60;;
12888;SDS011;56848;49.896;11.424;2023-03-07T11:28:29;4.87;;;3.23;;
12888;SDS011;56848;49.896;11.424;2023-03-07T11:36:07;11.47;;;6.77;;
12888;SDS011;56848;49.896;11.424;2023-03-07T11:38:40;32.47;;;5.43;;
12888;SDS011;56848;49.896;11.424;2023-03-07T11:41:27;7.67;;;3.77;;
12888;SDS011;56848;49.896;11.424;2023-03-07T11:52:09;10.80;;;6.70;;
12888;SDS011;56848;49.896;11.424;2023-03-07T12:01:25;6.73;;;3.97;;
12888;SDS011;56848;49.896;11.424;2023-03-07T12:06:28;10.90;;;5.00;;
12888;SDS011;56848;49.896;11.424;2023-03-07T12:09:19;8.30;;;5.03;;
12888;SDS011;56848;49.896;11.424;2023-03-07T12:14:53;7.10;;;4.67;;
12888;SDS011;56848;49.896;11.424;2023-03-07T12:25:49;6.03;;;4.43;;
12888;SDS011;56848;49.896;11.424;2023-03-07T12:31:10;7.83;;;4.90;;
12888;SDS011;56848;49.896;11.424;2023-03-07T12:44:45;7.87;;;4.30;;
12888;SDS011;56848;49.896;11.424;2023-03-07T12:49:55;7.60;;;4.70;;
12888;SDS011;56848;49.896;11.424;2023-03-07T12:52:39;7.83;;;4.40;;
12888;SDS011;56848;49.896;11.424;2023-03-07T12:55:33;8.07;;;4.90;;
12888;SDS011;56848;49.896;11.424;2023-03-07T12:58:39;22.40;;;4.93;;
12888;SDS011;56848;49.896;11.424;2023-03-07T13:01:33;5.60;;;3.87;;
12888;SDS011;56848;49.896;11.424;2023-03-07T13:04:17;9.20;;;3.03;;
12888;SDS011;56848;49.896;11.424;2023-03-07T13:06:54;5.10;;;3.63;;
12888;SDS011;56848;49.896;11.424;2023-03-07T13:09:29;6.47;;;3.80;;
12888;SDS011;56848;49.896;11.424;2023-03-07T13:14:43;8.60;;;4.50;;
12888;SDS011;56848;49.896;11.424;2023-03-07T13:17:13;9.23;;;6.10;;
12888;SDS011;56848;49.896;11.424;2023-03-07T13:28:03;6.57;;;4.33;;
12888;SDS011;56848;49.896;11.424;2023-03-07T13:33:35;6.63;;;3.90;;
12888;SDS011;56848;49.896;11.424;2023-03-07T13:36:01;10.10;;;4.53;;
12888;SDS011;56848;49.896;11.424;2023-03-07T13:38:31;2.93;;;2.20;;
12888;SDS011;56848;49.896;11.424;2023-03-07T13:41:44;8.23;;;4.47;;
12888;SDS011;56848;49.896;11.424;2023-03-07T13:44:35;9.17;;;4.53;;
12888;SDS011;56848;49.896;11.424;2023-03-07T13:47:02;5.73;;;3.73;;
12888;SDS011;56848;49.896;11.424;2023-03-07T13:49:32;5.37;;;3.20;;
12888;SDS011;56848;49.896;11.424;2023-03-07T13:54:47;4.13;;;2.07;;
12888;SDS011;56848;49.896;11.424;2023-03-07T13:57:18;4.47;;;2.60;;
12888;SDS011;56848;49.896;11.424;2023-03-07T13:59:50;2.83;;;2.00;;
12888;SDS011;56848;49.896;11.424;2023-03-07T14:02:16;4.83;;;3.20;;
12888;SDS011;56848;49.896;11.424;2023-03-07T14:04:43;6.83;;;4.60;;
12888;SDS011;56848;49.896;11.424;2023-03-07T14:09:49;6.93;;;4.77;;
12888;SDS011;56848;49.896;11.424;2023-03-07T14:15:26;7.60;;;4.40;;
12888;SDS011;56848;49.896;11.424;2023-03-07T14:23:17;5.70;;;3.60;;
12888;SDS011;56848;49.896;11.424;2023-03-07T14:28:49;6.47;;;4.00;;
12888;SDS011;56848;49.896;11.424;2023-03-07T14:31:22;5.50;;;3.50;;
12888;SDS011;56848;49.896;11.424;2023-03-07T14:33:52;5.37;;;4.23;;
12888;SDS011;56848;49.896;11.424;2023-03-07T14:36:19;6.93;;;4.23;;
12888;SDS011;56848;49.896;11.424;2023-03-07T14:38:50;6.60;;;4.10;;
12888;SDS011;56848;49.896;11.424;2023-03-07T14:47:16;6.37;;;2.70;;
12888;SDS011;56848;49.896;11.424;2023-03-07T14:49:54;8.20;;;3.37;;
12888;SDS011;56848;49.896;11.424;2023-03-07T14:52:44;5.00;;;3.60;;
12888;SDS011;56848;49.896;11.424;2023-03-07T14:55:18;5.17;;;3.07;;
12888;SDS011;56848;49.896;11.424;2023-03-07T14:57:46;5.60;;;3.50;;
12888;SDS011;56848;49.896;11.424;2023-03-07T15:02:57;4.43;;;2.23;;
12888;SDS011;56848;49.896;11.424;2023-03-07T15:07:59;7.33;;;3.93;;
12888;SDS011;56848;49.896;11.424;2023-03-07T15:10:33;6.43;;;3.63;;
12888;SDS011;56848;49.896;11.424;2023-03-07T15:13:05;6.10;;;4.13;;
12888;SDS011;56848;49.896;11.424;2023-03-07T15:15:40;14.07;;;5.10;;
12888;SDS011;56848;49.896;11.424;2023-03-07T15:18:15;6.77;;;4.60;;
12888;SDS011;56848;49.896;11.424;2023-03-07T15:20:46;4.17;;;2.57;;
12888;SDS011;56848;49.896;11.424;2023-03-07T15:23:19;10.03;;;2.10;;
12888;SDS011;56848;49.896;11.424;2023-03-07T15:25:47;7.43;;;4.17;;
12888;SDS011;56848;49.896;11.424;2023-03-07T15:28:22;7.40;;;3.70;;
12888;SDS011;56848;49.896;11.424;2023-03-07T15:30:50;14.90;;;4.07;;
12888;SDS011;56848;49.896;11.424;2023-03-07T15:35:43;4.00;;;2.77;;
12888;SDS011;56848;49.896;11.424;2023-03-07T15:38:17;8.33;;;4.57;;
12888;SDS011;56848;49.896;11.424;2023-03-07T15:40:47;8.70;;;4.60;;
12888;SDS011;56848;49.896;11.424;2023-03-07T15:43:21;7.20;;;3.90;;
12888;SDS011;56848;49.896;11.424;2023-03-07T15:45:56;10.20;;;4.50;;
12888;SDS011;56848;49.896;11.424;2023-03-07T15:48:37;5.10;;;3.17;;
12888;SDS011;56848;49.896;11.424;2023-03-07T15:51:15;16.20;;;3.97;;
12888;SDS011;56848;49.896;11.424;2023-03-07T15:53:55;5.60;;;3.60;;
12888;SDS011;56848;49.896;11.424;2023-03-07T15:56:25;7.93;;;3.67;;
12888;SDS011;56848;49.896;11.424;2023-03-07T15:59:21;10.03;;;2.87;;
12888;SDS011;56848;49.896;11.424;2023-03-07T16:01:53;7.20;;;4.40;;
12888;SDS011;56848;49.896;11.424;2023-03-07T16:06:59;7.37;;;4.50;;
12888;SDS011;56848;49.896;11.424;2023-03-07T16:09:25;6.13;;;3.60;;
12888;SDS011;56848;49.896;11.424;2023-03-07T16:11:50;3.80;;;2.77;;
12888;SDS011;56848;49.896;11.424;2023-03-07T16:16:46;7.57;;;3.97;;
12888;SDS011;56848;49.896;11.424;2023-03-07T16:19:12;14.73;;;5.20;;
12888;SDS011;56848;49.896;11.424;2023-03-07T16:21:38;12.50;;;5.37;;
12888;SDS011;56848;49.896;11.424;2023-03-07T16:24:04;9.23;;;4.60;;
12888;SDS011;56848;49.896;11.424;2023-03-07T16:26:30;8.80;;;6.47;;
12888;SDS011;56848;49.896;11.424;2023-03-07T16:28:56;5.13;;;2.70;;
12888;SDS011;56848;49.896;11.424;2023-03-07T16:31:24;25.50;;;8.97;;
12888;SDS011;56848;49.896;11.424;2023-03-07T16:33:50;44.03;;;13.53;;
12888;SDS011;56848;49.896;11.424;2023-03-07T16:36:15;8.43;;;5.07;;
12888;SDS011;56848;49.896;11.424;2023-03-07T16:38:42;11.43;;;3.60;;
12888;SDS011;56848;49.896;11.424;2023-03-07T16:41:16;10.47;;;4.50;;
12888;SDS011;56848;49.896;11.424;2023-03-07T16:43:46;4.10;;;3.13;;
12888;SDS011;56848;49.896;11.424;2023-03-07T16:46:17;4.10;;;2.70;;
12888;SDS011;56848;49.896;11.424;2023-03-07T16:48:44;10.80;;;4.67;;
12888;SDS011;56848;49.896;11.424;2023-03-07T16:51:13;10.77;;;4.53;;
12888;SDS011;56848;49.896;11.424;2023-03-07T16:53:46;4.10;;;3.37;;
12888;SDS011;56848;49.896;11.424;2023-03-07T16:56:35;10.03;;;4.37;;
12888;SDS011;56848;49.896;11.424;2023-03-07T16:59:02;8.03;;;4.90;;
12888;SDS011;56848;49.896;11.424;2023-03-07T17:01:28;7.93;;;5.27;;
12888;SDS011;56848;49.896;11.424;2023-03-07T17:03:54;10.43;;;4.90;;
12888;SDS011;56848;49.896;11.424;2023-03-07T17:06:20;6.60;;;4.60;;
12888;SDS011;56848;49.896;11.424;2023-03-07T17:08:46;7.90;;;5.07;;
12888;SDS011;56848;49.896;11.424;2023-03-07T17:11:16;4.00;;;3.20;;
12888;SDS011;56848;49.896;11.424;2023-03-07T17:13:45;7.40;;;4.30;;
12888;SDS011;56848;49.896;11.424;2023-03-07T17:16:15;8.50;;;5.27;;
12888;SDS011;56848;49.896;11.424;2023-03-07T17:18:41;8.80;;;5.10;;
12888;SDS011;56848;49.896;11.424;2023-03-07T17:21:17;8.40;;;5.57;;
12888;SDS011;56848;49.896;11.424;2023-03-07T17:23:44;3.63;;;2.70;;
12888;SDS011;56848;49.896;11.424;2023-03-07T17:26:13;19.93;;;5.73;;
12888;SDS011;56848;49.896;11.424;2023-03-07T17:28:54;9.37;;;4.73;;
12888;SDS011;56848;49.896;11.424;2023-03-07T17:31:22;11.47;;;5.37;;
12888;SDS011;56848;49.896;11.424;2023-03-07T17:33:47;10.63;;;4.90;;
12888;SDS011;56848;49.896;11.424;2023-03-07T17:36:13;4.67;;;2.63;;
12888;SDS011;56848;49.896;11.424;2023-03-07T17:38:39;7.43;;;3.87;;
12888;SDS011;56848;49.896;11.424;2023-03-07T17:41:04;7.57;;;4.37;;
12888;SDS011;56848;49.896;11.424;2023-03-07T17:43:30;9.87;;;3.93;;
12888;SDS011;56848;49.896;11.424;2023-03-07T17:45:57;6.73;;;4.10;;
12888;SDS011;56848;49.896;11.424;2023-03-07T17:48:23;9.60;;;4.77;;
12888;SDS011;56848;49.896;11.424;2023-03-07T17:50:48;5.57;;;3.60;;
12888;SDS011;56848;49.896;11.424;2023-03-07T17:53:14;13.03;;;5.00;;
12888;SDS011;56848;49.896;11.424;2023-03-07T17:55:39;9.40;;;4.90;;
12888;SDS011;56848;49.896;11.424;2023-03-07T17:58:08;8.30;;;5.10;;
12888;SDS011;56848;49.896;11.424;2023-03-07T18:00:35;10.47;;;6.00;;
12888;SDS011;56848;49.896;11.424;2023-03-07T18:03:01;8.00;;;4.80;;
12888;SDS011;56848;49.896;11.424;2023-03-07T18:05:27;9.27;;;5.70;;
12888;SDS011;56848;49.896;11.424;2023-03-07T18:07:53;9.07;;;4.87;;
12888;SDS011;56848;49.896;11.424;2023-03-07T18:10:20;10.00;;;5.50;;
12888;SDS011;56848;49.896;11.424;2023-03-07T18:12:47;6.87;;;4.07;;
12888;SDS011;56848;49.896;11.424;2023-03-07T18:15:15;7.00;;;3.70;;
12888;SDS011;56848;49.896;11.424;2023-03-07T18:17:42;10.63;;;4.80;;
12888;SDS011;56848;49.896;11.424;2023-03-07T18:20:08;11.70;;;5.80;;
12888;SDS011;56848;49.896;11.424;2023-03-07T18:22:38;9.33;;;5.47;;
12888;SDS011;56848;49.896;11.424;2023-03-07T18:25:06;6.00;;;3.75;;
12888;SDS011;56848;49.896;11.424;2023-03-07T18:27:34;10.83;;;5.30;;
12888;SDS011;56848;49.896;11.424;2023-03-07T18:29:59;9.67;;;5.20;;
12888;SDS011;56848;49.896;11.424;2023-03-07T18:32:25;7.40;;;3.53;;
12888;SDS011;56848;49.896;11.424;2023-03-07T18:34:51;13.30;;;5.40;;
12888;SDS011;56848;49.896;11.424;2023-03-07T18:37:17;13.95;;;5.13;;
12888;SDS011;56848;49.896;11.424;2023-03-07T18:39:43;12.93;;;6.03;;
12888;SDS011;56848;49.896;11.424;2023-03-07T18:42:09;11.60;;;6.10;;
12888;SDS011;56848;49.896;11.424;2023-03-07T18:44:37;9.93;;;6.20;;
12888;SDS011;56848;49.896;11.424;2023-03-07T18:47:03;9.23;;;6.03;;
12888;SDS011;56848;49.896;11.424;2023-03-07T18:49:29;11.93;;;5.43;;
12888;SDS011;56848;49.896;11.424;2023-03-07T18:51:54;9.20;;;4.90;;
12888;SDS011;56848;49.896;11.424;2023-03-07T18:54:20;11.87;;;6.17;;
12888;SDS011;56848;49.896;11.424;2023-03-07T18:56:46;9.03;;;3.63;;
12888;SDS011;56848;49.896;11.424;2023-03-07T18:59:12;12.27;;;5.65;;
12888;SDS011;56848;49.896;11.424;2023-03-07T19:01:38;5.23;;;4.43;;
12888;SDS011;56848;49.896;11.424;2023-03-07T19:04:04;9.93;;;4.97;;
12888;SDS011;56848;49.896;11.424;2023-03-07T19:06:33;13.73;;;5.80;;
12888;SDS011;56848;49.896;11.424;2023-03-07T19:09:00;14.83;;;7.10;;
12888;SDS011;56848;49.896;11.424;2023-03-07T19:11:27;14.18;;;6.65;;
12888;SDS011;56848;49.896;11.424;2023-03-07T19:13:54;11.53;;;5.43;;
12888;SDS011;56848;49.896;11.424;2023-03-07T19:16:21;10.67;;;4.93;;
12888;SDS011;56848;49.896;11.424;2023-03-07T19:18:50;10.05;;;5.43;;
12888;SDS011;56848;49.896;11.424;2023-03-07T19:21:17;13.07;;;5.13;;
12888;SDS011;56848;49.896;11.424;2023-03-07T19:23:45;6.73;;;3.47;;
12888;SDS011;56848;49.896;11.424;2023-03-07T19:26:12;10.53;;;5.70;;
12888;SDS011;56848;49.896;11.424;2023-03-07T19:28:40;9.37;;;4.70;;
12888;SDS011;56848;49.896;11.424;2023-03-07T19:31:07;7.70;;;5.03;;
12888;SDS011;56848;49.896;11.424;2023-03-07T19:33:34;8.57;;;5.00;;
12888;SDS011;56848;49.896;11.424;2023-03-07T19:36:07;12.77;;;6.13;;
12888;SDS011;56848;49.896;11.424;2023-03-07T19:38:37;8.23;;;5.03;;
12888;SDS011;56848;49.896;11.424;2023-03-07T19:41:03;10.00;;;5.10;;
12888;SDS011;56848;49.896;11.424;2023-03-07T19:43:30;5.40;;;4.00;;
12888;SDS011;56848;49.896;11.424;2023-03-07T19:45:56;13.13;;;5.27;;
12888;SDS011;56848;49.896;11.424;2023-03-07T19:48:22;9.10;;;5.60;;
12888;SDS011;56848;49.896;11.424;2023-03-07T19:50:48;9.55;;;4.55;;
12888;SDS011;56848;49.896;11.424;2023-03-07T19:53:15;11.13;;;5.33;;
12888;SDS011;56848;49.896;11.424;2023-03-07T19:55:41;9.50;;;5.33;;
12888;SDS011;56848;49.896;11.424;2023-03-07T19:58:06;11.53;;;5.80;;
12888;SDS011;56848;49.896;11.424;2023-03-07T20:00:32;12.50;;;6.03;;
12888;SDS011;56848;49.896;11.424;2023-03-07T20:02:58;11.10;;;5.20;;
12888;SDS011;56848;49.896;11.424;2023-03-07T20:05:24;14.50;;;5.80;;
12888;SDS011;56848;49.896;11.424;2023-03-07T20:07:50;4.57;;;2.73;;
12888;SDS011;56848;49.896;11.424;2023-03-07T20:10:15;5.77;;;3.80;;
12888;SDS011;56848;49.896;11.424;2023-03-07T20:12:41;9.53;;;4.90;;
12888;SDS011;56848;49.896;11.424;2023-03-07T20:15:07;8.30;;;4.97;;
12888;SDS011;56848;49.896;11.424;2023-03-07T20:17:33;8.33;;;5.03;;
12888;SDS011;56848;49.896;11.424;2023-03-07T20:19:58;11.70;;;5.17;;
12888;SDS011;56848;49.896;11.424;2023-03-07T20:22:25;11.93;;;5.20;;
12888;SDS011;56848;49.896;11.424;2023-03-07T20:24:52;11.00;;;4.77;;
12888;SDS011;56848;49.896;11.424;2023-03-07T20:27:18;15.03;;;5.27;;
12888;SDS011;56848;49.896;11.424;2023-03-07T20:29:48;12.77;;;4.77;;
12888;SDS011;56848;49.896;11.424;2023-03-07T20:32:14;13.30;;;5.73;;
12888;SDS011;56848;49.896;11.424;2023-03-07T20:34:40;14.60;;;6.00;;
12888;SDS011;56848;49.896;11.424;2023-03-07T20:37:06;10.53;;;5.10;;
12888;SDS011;56848;49.896;11.424;2023-03-07T20:39:32;11.43;;;4.40;;
12888;SDS011;56848;49.896;11.424;2023-03-07T20:41:57;13.20;;;5.60;;
12888;SDS011;56848;49.896;11.424;2023-03-07T20:44:23;8.03;;;5.00;;
12888;SDS011;56848;49.896;11.424;2023-03-07T20:46:48;12.20;;;5.43;;
12888;SDS011;56848;49.896;11.424;2023-03-07T20:49:14;6.47;;;2.97;;
12888;SDS011;56848;49.896;11.424;2023-03-07T20:51:40;10.57;;;6.00;;
12888;SDS011;56848;49.896;11.424;2023-03-07T20:54:09;12.77;;;6.40;;
12888;SDS011;56848;49.896;11.424;2023-03-07T20:56:38;11.80;;;5.80;;
12888;SDS011;56848;49.896;11.424;2023-03-07T20:59:05;11.30;;;6.10;;
12888;SDS011;56848;49.896;11.424;2023-03-07T21:01:32;10.53;;;5.17;;
12888;SDS011;56848;49.896;11.424;2023-03-07T21:03:59;15.33;;;6.77;;
12888;SDS011;56848;49.896;11.424;2023-03-07T21:06:33;8.43;;;5.30;;
12888;SDS011;56848;49.896;11.424;2023-03-07T21:09:00;11.80;;;6.30;;
12888;SDS011;56848;49.896;11.424;2023-03-07T21:11:30;10.73;;;5.83;;
12888;SDS011;56848;49.896;11.424;2023-03-07T21:13:56;4.40;;;3.17;;
12888;SDS011;56848;49.896;11.424;2023-03-07T21:16:22;13.73;;;6.17;;
12888;SDS011;56848;49.896;11.424;2023-03-07T21:18:55;8.90;;;5.03;;
12888;SDS011;56848;49.896;11.424;2023-03-07T21:21:22;10.80;;;5.33;;
